Buncombe, Illinois
Current Conditions -  °F | °C
As of 11:57 AM on Thursday 30 Oct 2014 (Local Time) from KMWA Reporting Station
Clear Clear  
Wind Chill: 57°   Ceiling: Unl
Heat Index: 57°   Visibility: 20mi
Dew Point: 39°   Wind: 12mph
Humidity: 51%   Direction: 190°S
Pressure: 30.15"   Gusts: NA
Location:  37.47°N, 88.98°W
Report Text: KMWA 301657Z 19010KT 20SM SKC 14/04 A3015
Loading
Personal Weather Stations






























Interactive Weather Map
Tropical Storm Tracking
New forecast layout! Learn more

10-Day Weather Forecast

Advertisements
Track Severe Weather on mobile